Weather reports worldwide

Advertisment
Somosierra, Spain (8145): temperature & dewpoint: 09.12.2019 01:00:00 - 15.12.2019 01:00:00 (CET)Somosierra, Spain (8145): wind speed & gusts: 09.12.2019 01:00:00 - 15.12.2019 01:00:00 (CET)Somosierra, Spain (8145): precipitation: 09.12.2019 01:00:00 - 15.12.2019 01:00:00 (CET)
Date & Time tt [°C] td [°C] ff [km/h] ff [kn] fx [km/h] fx [kn] rr [mm]
15.12.2019 01:00:00 - - - - - - -
15.12.2019 00:00:00 4,1 1,1 1 0 18 10 0,0
14.12.2019 23:00:00 3,9 0,9 1 1 14 8 0,0
14.12.2019 22:00:00 4,0 1,3 2 1 16 9 0,0
14.12.2019 21:00:00 4,2 1,7 1 1 14 8 0,0
14.12.2019 20:00:00 4,4 1,9 1 0 16 8 0,0
14.12.2019 19:00:00 4,5 0,6 2 1 13 7 -
14.12.2019 18:00:00 4,3 0,4 1 1 11 6 0,0
14.12.2019 17:00:00 4,5 1,5 3 1 16 9 0,0
14.12.2019 16:00:00 4,6 0,6 1 0 15 8 0,0
14.12.2019 15:00:00 4,8 1,7 3 2 23 13 0,0
14.12.2019 14:00:00 4,2 1,9 3 2 19 11 0,0
14.12.2019 13:00:00 4,0 1,5 0 0 18 10 -
14.12.2019 12:00:00 3,5 1,7 0 0 16 9 0,0
14.12.2019 11:00:00 2,8 1,7 0 0 18 10 0,0
14.12.2019 10:00:00 2,7 1,1 0 0 18 10 0,0
14.12.2019 09:00:00 2,8 1,3 0 0 19 10 0,0
14.12.2019 08:00:00 3,0 1,7 0 0 16 8 0,0
14.12.2019 07:00:00 3,2 2,1 0 0 14 8 -
14.12.2019 06:00:00 3,2 2,1 3 2 28 15 0,0
14.12.2019 05:00:00 3,2 2,1 5 3 34 19 0,0
14.12.2019 04:00:00 3,3 2,1 8 4 28 15 0,0
14.12.2019 03:00:00 3,6 2,5 5 3 31 17 0,0
14.12.2019 02:00:00 4,2 3,2 5 3 38 20 0,0
14.12.2019 01:00:00 4,2 3,2 7 4 34 18 -
14.12.2019 00:00:00 4,5 3,4 9 5 37 20 0,0
13.12.2019 23:00:00 4,5 3,2 9 5 40 22 0,0
13.12.2019 22:00:00 5,0 3,9 8 4 44 24 0,0
13.12.2019 21:00:00 5,3 4,8 5 3 45 25 0,0
13.12.2019 20:00:00 5,4 5,1 8 4 42 23 0,0
13.12.2019 19:00:00 5,7 5,5 9 5 46 25 -
13.12.2019 18:00:00 5,9 5,8 9 5 47 26 0,0
13.12.2019 17:00:00 6,2 6,1 14 7 49 27 0,0
13.12.2019 16:00:00 6,2 6,1 14 7 45 25 0,0
13.12.2019 15:00:00 6,3 6,1 12 6 53 29 0,0
13.12.2019 14:00:00 6,1 5,9 14 7 52 28 0,0
13.12.2019 13:00:00 5,8 5,6 13 7 47 25 -
13.12.2019 12:00:00 5,5 5,3 10 5 46 25 0,0
13.12.2019 11:00:00 4,7 4,6 8 5 42 23 0,0
13.12.2019 10:00:00 4,5 4,3 7 4 44 24 0,0
13.12.2019 09:00:00 4,4 4,3 9 5 50 27 0,0
13.12.2019 08:00:00 4,8 4,6 14 8 48 26 0,2
13.12.2019 07:00:00 5,2 5,1 13 7 50 27 -
13.12.2019 06:00:00 5,6 5,5 11 6 40 22 0,0
13.12.2019 05:00:00 5,9 5,8 14 7 53 29 0,6
13.12.2019 04:00:00 6,1 5,9 14 7 42 23 0,4
13.12.2019 03:00:00 6,1 5,9 11 6 48 26 1,6
13.12.2019 02:00:00 6,2 6,1 10 6 46 25 1,0
13.12.2019 01:00:00 6,0 5,8 9 5 45 24 -
13.12.2019 00:00:00 5,9 5,8 15 8 51 27 4,6
12.12.2019 23:00:00 5,6 5,5 16 8 41 22 6,0
12.12.2019 22:00:00 5,4 5,3 12 6 39 21 2,8
12.12.2019 21:00:00 4,9 4,8 4 2 42 23 8,0
12.12.2019 20:00:00 4,2 3,9 10 5 36 19 6,2
12.12.2019 19:00:00 3,7 3,6 11 6 42 23 -
12.12.2019 18:00:00 3,2 2,9 14 7 49 27 6,4
12.12.2019 17:00:00 2,3 1,9 9 5 39 21 4,0
12.12.2019 16:00:00 2,2 1,7 11 6 47 26 4,2
12.12.2019 15:00:00 1,8 1,3 9 5 42 23 3,4
12.12.2019 14:00:00 1,1 0,2 11 6 36 19 4,0
12.12.2019 13:00:00 0,6 -0,3 9 5 37 20 -
12.12.2019 12:00:00 0,8 0,2 14 8 35 19 2,8
12.12.2019 11:00:00 0,4 0,2 6 3 32 18 2,4
12.12.2019 10:00:00 0,7 0,6 7 4 33 18 0,4
12.12.2019 09:00:00 0,6 0,4 5 3 31 17 0,4
12.12.2019 08:00:00 0,3 0,2 8 4 36 20 0,0
12.12.2019 07:00:00 0,1 0,0 4 2 29 16 -
12.12.2019 06:00:00 -0,1 -0,3 10 5 34 18 0,0
12.12.2019 05:00:00 -0,2 -0,3 8 5 36 20 0,0
12.12.2019 04:00:00 -0,3 -0,5 6 4 30 16 0,0
12.12.2019 03:00:00 -0,6 -0,7 7 4 36 20 0,0
12.12.2019 02:00:00 -0,6 -0,7 9 5 39 21 0,0
12.12.2019 01:00:00 -0,6 -0,7 9 5 31 17 -
12.12.2019 00:00:00 -0,6 -1,0 8 4 37 20 0,0
11.12.2019 23:00:00 -0,7 -1,0 10 5 36 19 0,0
11.12.2019 22:00:00 -0,7 -1,4 9 5 31 17 0,0
11.12.2019 21:00:00 -0,5 -1,4 6 3 34 18 0,0
11.12.2019 20:00:00 -0,1 -1,4 8 4 26 14 0,0
11.12.2019 19:00:00 -0,5 -2,2 5 3 30 16 -
11.12.2019 18:00:00 -0,4 -1,7 4 2 29 16 0,0
11.12.2019 17:00:00 1,3 0,6 7 4 37 20 0,0
11.12.2019 16:00:00 2,3 2,1 8 5 34 18 0,0
11.12.2019 15:00:00 1,3 1,1 7 4 32 17 0,0
11.12.2019 14:00:00 0,8 0,6 8 5 34 18 0,0
11.12.2019 13:00:00 0,8 0,6 9 5 33 18 -
11.12.2019 12:00:00 1,7 1,5 10 5 32 17 0,2
11.12.2019 11:00:00 2,2 2,1 8 4 29 16 4,6
11.12.2019 10:00:00 2,8 2,1 3 2 19 11 7,8
11.12.2019 09:00:00 1,9 -2,0 2 1 25 14 2,0
11.12.2019 08:00:00 4,5 -12,2 1 0 14 8 0,0
11.12.2019 07:00:00 4,5 -12,2 2 1 21 11 -
11.12.2019 06:00:00 4,2 -12,2 2 1 10 5 0,0
11.12.2019 05:00:00 4,0 -9,9 1 1 17 9 0,0
11.12.2019 04:00:00 4,3 -8,6 1 0 9 5 0,0
11.12.2019 03:00:00 4,1 -7,8 1 1 10 5 0,0
11.12.2019 02:00:00 5,1 -7,5 1 1 14 8 0,0
11.12.2019 01:00:00 4,4 -6,4 1 0 8 4 -
11.12.2019 00:00:00 4,3 -8,2 0 0 8 4 0,0
10.12.2019 23:00:00 3,4 -9,0 1 0 18 10 0,0
10.12.2019 22:00:00 3,4 -8,6 4 2 10 6 0,0
10.12.2019 21:00:00 4,2 -7,5 1 0 6 3 0,0
10.12.2019 20:00:00 3,8 -9,4 1 0 7 4 0,0
10.12.2019 19:00:00 3,7 -8,6 1 1 7 4 -
10.12.2019 18:00:00 4,2 -6,0 0 0 9 5 0,0
10.12.2019 17:00:00 5,4 -6,4 3 1 9 5 0,0
10.12.2019 16:00:00 7,4 -5,4 0 0 8 4 0,0
10.12.2019 15:00:00 6,1 -6,7 4 2 11 6 0,0
10.12.2019 14:00:00 7,5 -7,1 5 3 14 7 0,0
10.12.2019 13:00:00 7,5 -6,4 4 2 16 9 -
10.12.2019 12:00:00 5,5 -7,8 6 3 19 10 0,0
10.12.2019 11:00:00 4,3 -6,4 5 3 13 7 0,0
10.12.2019 10:00:00 1,8 -3,9 6 4 14 7 0,0
10.12.2019 09:00:00 -0,8 -4,8 4 2 9 5 0,0
10.12.2019 08:00:00 -0,8 -4,5 0 0 3 2 0,0
10.12.2019 07:00:00 -1,3 -3,6 0 0 5 3 -
10.12.2019 06:00:00 -0,5 -2,2 0 0 17 9 0,0
10.12.2019 05:00:00 -0,9 -1,2 5 3 18 10 0,0
10.12.2019 04:00:00 -0,9 -1,2 4 2 18 10 0,0
10.12.2019 03:00:00 -0,6 -1,2 5 3 16 9 0,0
10.12.2019 02:00:00 -0,6 -1,2 3 2 16 9 0,0
10.12.2019 01:00:00 -0,3 -1,0 5 3 17 9 -
10.12.2019 00:00:00 0,0 -0,5 5 3 25 14 0,0
09.12.2019 23:00:00 0,2 -0,5 8 4 28 15 0,0
09.12.2019 22:00:00 0,7 -0,3 9 5 26 14 0,0
09.12.2019 21:00:00 0,3 -0,7 9 5 26 14 0,0
09.12.2019 20:00:00 0,8 -0,7 9 5 24 13 0,0
09.12.2019 19:00:00 1,0 -1,2 10 5 27 15 -
09.12.2019 18:00:00 2,4 -1,4 8 5 35 19 0,0
09.12.2019 17:00:00 3,8 -1,4 16 9 37 20 0,0
09.12.2019 16:00:00 4,9 -1,7 10 5 29 15 0,0
09.12.2019 15:00:00 5,1 -3,0 6 3 36 19 0,0
09.12.2019 14:00:00 5,7 -3,3 8 5 35 19 0,0
09.12.2019 13:00:00 6,3 -1,4 5 3 31 17 -
09.12.2019 12:00:00 5,1 -2,5 2 1 19 11 0,0
09.12.2019 11:00:00 4,3 -2,5 0 0 18 10 0,0
09.12.2019 10:00:00 2,1 0,0 3 2 14 7 0,0
09.12.2019 09:00:00 0,6 0,0 4 2 14 8 0,0
09.12.2019 08:00:00 2,3 2,1 5 3 23 12 0,0
09.12.2019 07:00:00 2,8 2,7 4 2 21 11 -
09.12.2019 06:00:00 2,6 2,5 3 2 23 13 0,0
09.12.2019 05:00:00 3,2 3,0 7 4 32 17 0,0
09.12.2019 04:00:00 3,4 3,2 4 2 21 11 0,0
09.12.2019 03:00:00 3,5 3,4 4 2 19 10 0,0
09.12.2019 02:00:00 3,7 3,6 5 3 27 15 0,0
09.12.2019 01:00:00 4,2 4,1 3 2 16 9 -

tt = temperature
td = dewpoint
ff = wind speed
fx = gusts
rr = precipitation

Next stations